Time;durP1;ratioP1;P1;durP2;ratioP2;P2;SDS_P1;SDS_P2;PMS_P1;PMS_P2;Temp;Humidity;BMP_temperature;BMP_pressure;BME280_temperature;BME280_humidity;BME280_pressure;Samples;Min_cycle;Max_cycle;Signal;HPM_P1;HPM_P2
2023/02/18 00:00:12;;;;;;;20.55;15.27;;;12.10;82.90;;;;;;5032860;28;20536;-73
2023/02/18 00:02:37;;;;;;;21.08;15.07;;;12.10;83.70;;;;;;5032800;28;20525;-76
2023/02/18 00:05:03;;;;;;;23.25;15.10;;;12.10;83.30;;;;;;5033041;28;20479;-74
2023/02/18 00:07:34;;;;;;;22.03;15.80;;;12.10;83.50;;;;;;5032820;28;20424;-75
2023/02/18 00:09:59;;;;;;;19.23;14.43;;;12.10;83.40;;;;;;5032986;28;20386;-75
2023/02/18 00:12:25;;;;;;;21.07;15.37;;;12.10;82.80;;;;;;5032784;28;20387;-74
2023/02/18 00:14:51;;;;;;;20.50;14.73;;;12.20;82.90;;;;;;5032852;28;20379;-74
2023/02/18 00:17:16;;;;;;;19.33;14.50;;;12.10;82.80;;;;;;5032692;28;20379;-74
2023/02/18 00:19:42;;;;;;;21.73;15.07;;;12.10;83.80;;;;;;5033441;28;20880;-76
2023/02/18 00:22:07;;;;;;;19.70;14.50;;;12.10;83.80;;;;;;5032197;28;20383;-73
2023/02/18 00:24:33;;;;;;;24.10;16.52;;;12.10;83.40;;;;;;5032761;28;20594;-76
2023/02/18 00:26:59;;;;;;;21.70;15.80;;;12.10;84.80;;;;;;5033213;28;20403;-75
2023/02/18 00:29:24;;;;;;;22.53;15.87;;;12.10;84.80;;;;;;5032585;28;20513;-75
2023/02/18 00:31:50;;;;;;;23.77;15.77;;;12.10;84.50;;;;;;5032375;28;20375;-74
2023/02/18 00:34:15;;;;;;;21.60;15.83;;;12.10;83.90;;;;;;5032927;28;20418;-75
2023/02/18 00:36:41;;;;;;;23.60;15.83;;;12.10;84.60;;;;;;5032679;28;20805;-75
2023/02/18 00:39:08;;;;;;;22.20;16.13;;;12.10;84.70;;;;;;5032416;28;20497;-76
2023/02/18 00:41:35;;;;;;;21.42;15.90;;;12.10;84.50;;;;;;5032438;28;20930;-75
2023/02/18 00:44:00;;;;;;;24.10;16.00;;;12.10;84.30;;;;;;5032427;28;20415;-75
2023/02/18 00:46:27;;;;;;;23.43;15.53;;;12.10;84.90;;;;;;5031778;28;20410;-75
2023/02/18 00:48:53;;;;;;;23.60;15.85;;;12.10;85.00;;;;;;5014259;28;20387;-76
2023/02/18 00:51:18;;;;;;;20.35;15.20;;;12.10;84.90;;;;;;5034298;28;20981;-74
2023/02/18 00:53:44;;;;;;;24.67;15.80;;;12.10;85.40;;;;;;5032130;28;20426;-76
2023/02/18 00:56:10;;;;;;;22.80;16.53;;;12.00;86.20;;;;;;5032165;28;20486;-75
2023/02/18 00:58:36;;;;;;;23.40;15.87;;;12.00;86.10;;;;;;5032333;28;20411;-74
2023/02/18 01:01:02;;;;;;;23.95;16.95;;;12.00;86.70;;;;;;5031672;28;20387;-75
2023/02/18 01:03:28;;;;;;;22.05;16.60;;;12.00;87.10;;;;;;5031838;28;20388;-75
2023/02/18 01:05:54;;;;;;;23.52;16.08;;;12.00;86.90;;;;;;5032449;28;20418;-74
2023/02/18 01:08:20;;;;;;;21.77;16.42;;;12.00;87.70;;;;;;5032282;28;20387;-75
2023/02/18 01:10:56;;;;;;;22.80;15.68;;;12.00;86.70;;;;;;5032317;28;20455;-76
2023/02/18 01:13:22;;;;;;;20.95;15.45;;;12.00;87.00;;;;;;5032615;28;20469;-75
2023/02/18 01:15:48;;;;;;;19.45;15.43;;;12.00;86.10;;;;;;5032101;28;20418;-75
2023/02/18 01:18:14;;;;;;;21.77;15.70;;;12.00;86.10;;;;;;5032432;28;20856;-75
2023/02/18 01:20:41;;;;;;;23.10;15.80;;;12.00;86.60;;;;;;5033360;28;20399;-76
2023/02/18 01:23:07;;;;;;;23.13;16.20;;;12.00;86.60;;;;;;5032705;28;20390;-75
2023/02/18 01:25:34;;;;;;;19.67;14.50;;;12.00;87.00;;;;;;5014618;28;20569;-75
2023/02/18 01:27:59;;;;;;;20.00;14.70;;;12.00;86.30;;;;;;5033354;28;20441;-74
2023/02/18 01:30:25;;;;;;;21.20;14.07;;;12.00;87.10;;;;;;5031512;28;20413;-75
2023/02/18 01:32:50;;;;;;;17.97;14.23;;;12.00;86.50;;;;;;5030976;28;20387;-74
2023/02/18 01:35:18;;;;;;;17.83;13.70;;;12.00;87.40;;;;;;5031165;28;20406;-75
2023/02/18 01:37:45;;;;;;;18.73;13.70;;;12.00;86.00;;;;;;5031001;28;20395;-73
2023/02/18 01:40:14;;;;;;;21.13;14.13;;;11.90;86.40;;;;;;5031540;28;20394;-73
2023/02/18 01:42:40;;;;;;;20.50;14.23;;;11.90;87.00;;;;;;5032058;28;20821;-75
2023/02/18 01:45:33;;;;;;;16.58;13.15;;;11.90;87.00;;;;;;5032996;28;20820;-73
2023/02/18 01:48:22;;;;;;;21.48;14.10;;;12.00;84.90;;;;;;5032239;28;20860;-74
2023/02/18 01:50:55;;;;;;;18.67;13.30;;;12.00;85.60;;;;;;5031606;28;20441;-74
2023/02/18 01:53:27;;;;;;;19.40;13.70;;;12.00;85.20;;;;;;5032991;28;20878;-74
2023/02/18 01:55:53;;;;;;;18.50;14.07;;;12.00;85.40;;;;;;5031293;28;20474;-74
2023/02/18 01:58:19;;;;;;;20.05;14.20;;;12.00;85.40;;;;;;5030574;28;20387;-74
2023/02/18 02:00:45;;;;;;;20.55;13.80;;;12.00;85.60;;;;;;5030773;28;20540;-75
2023/02/18 02:03:10;;;;;;;18.63;13.70;;;11.90;87.40;;;;;;5031447;28;20433;-75
2023/02/18 02:05:36;;;;;;;21.50;14.98;;;11.90;87.60;;;;;;5030992;28;20773;-75
2023/02/18 02:08:03;;;;;;;24.67;15.30;;;11.90;87.30;;;;;;5031417;28;20389;-74
2023/02/18 02:10:54;;;;;;;23.10;15.38;;;11.80;89.00;;;;;;5031033;28;20395;-74
2023/02/18 02:13:43;;;;;;;22.73;15.70;;;11.90;89.30;;;;;;5031343;28;20787;-75
2023/02/18 02:16:28;;;;;;;25.10;17.08;;;11.90;89.30;;;;;;5029826;28;20814;-75
2023/02/18 02:19:17;;;;;;;24.05;16.60;;;11.90;90.70;;;;;;5031112;28;20864;-73
2023/02/18 02:22:06;;;;;;;24.02;17.40;;;11.90;91.00;;;;;;5031233;28;20406;-75
2023/02/18 02:24:44;;;;;;;25.13;16.85;;;11.90;92.20;;;;;;5030938;28;20390;-74
2023/02/18 02:27:23;;;;;;;23.70;17.08;;;11.90;92.60;;;;;;5030607;28;20398;-75
2023/02/18 02:30:18;;;;;;;27.25;18.33;;;11.90;93.80;;;;;;5030748;28;20732;-76
2023/02/18 02:33:11;;;;;;;26.02;18.48;;;11.90;94.80;;;;;;5030076;28;20386;-74
2023/02/18 02:35:55;;;;;;;27.98;19.25;;;11.80;96.80;;;;;;5030288;28;20383;-75
2023/02/18 02:38:29;;;;;;;33.38;23.10;;;11.70;99.70;;;;;;5030556;28;20467;-75
2023/02/18 02:40:58;;;;;;;38.27;25.77;;;11.80;99.90;;;;;;5031040;28;20859;-75
2023/02/18 02:44:05;;;;;;;38.70;26.00;;;11.80;99.90;;;;;;5031365;28;20391;-75
2023/02/18 02:46:38;;;;;;;42.65;28.73;;;11.80;99.90;;;;;;5030737;28;20434;-75
2023/02/18 02:49:32;;;;;;;41.70;28.73;;;11.60;99.90;;;;;;5030893;28;20437;-75
2023/02/18 02:52:07;;;;;;;43.28;28.95;;;11.60;99.90;;;;;;5030284;28;20363;-76
2023/02/18 02:54:32;;;;;;;43.80;29.80;;;11.70;99.90;;;;;;5030774;28;20379;-76
2023/02/18 02:57:29;;;;;;;45.87;29.90;;;11.60;99.90;;;;;;5030243;28;20394;-75
2023/02/18 03:00:00;;;;;;;39.00;26.50;;;11.70;99.90;;;;;;5029966;28;20422;-75
2023/02/18 03:02:36;;;;;;;36.90;24.77;;;11.70;99.90;;;;;;5030128;28;20437;-75
2023/02/18 03:05:33;;;;;;;35.08;23.63;;;11.70;99.90;;;;;;5030376;28;20395;-73
2023/02/18 03:08:43;;;;;;;38.63;23.38;;;11.70;99.90;;;;;;5030371;28;20375;-73
2023/02/18 03:11:12;;;;;;;29.45;20.20;;;11.70;99.90;;;;;;4990487;28;20521;-75
2023/02/18 03:13:52;;;;;;;33.63;20.83;;;11.70;99.90;;;;;;5026395;28;20383;-75
2023/02/18 03:16:42;;;;;;;30.73;20.40;;;11.70;99.90;;;;;;5034339;28;20931;-73
2023/02/18 03:19:33;;;;;;;29.75;19.25;;;11.70;99.90;;;;;;5034152;28;20843;-75
2023/02/18 03:22:09;;;;;;;34.47;20.85;;;11.70;99.90;;;;;;5034161;28;20426;-73
2023/02/18 03:24:42;;;;;;;32.40;19.85;;;11.70;99.90;;;;;;5034636;28;20383;-75
2023/02/18 03:27:20;;;;;;;33.33;20.05;;;11.70;99.90;;;;;;5034102;28;20406;-75
2023/02/18 03:29:51;;;;;;;33.60;20.63;;;11.70;99.90;;;;;;5034179;28;20470;-76
2023/02/18 03:32:20;;;;;;;29.75;20.50;;;11.70;99.90;;;;;;5035144;28;20777;-75
2023/02/18 03:34:50;;;;;;;29.33;19.38;;;11.70;99.90;;;;;;5045108;28;20417;-76
2023/02/18 03:37:17;;;;;;;31.55;19.25;;;11.70;99.90;;;;;;5017518;28;20892;-75
2023/02/18 03:39:47;;;;;;;27.58;18.58;;;11.70;99.90;;;;;;5016233;28;20394;-76
2023/02/18 03:42:15;;;;;;;25.00;16.35;;;11.70;99.90;;;;;;5033409;28;20407;-76
2023/02/18 03:44:40;;;;;;;30.00;18.58;;;11.70;99.90;;;;;;5033402;28;20387;-74
2023/02/18 03:47:06;;;;;;;24.07;16.17;;;11.70;99.90;;;;;;5033529;28;20399;-74
2023/02/18 03:49:32;;;;;;;23.40;14.60;;;11.60;99.90;;;;;;5033651;28;20466;-75
2023/02/18 03:51:57;;;;;;;20.50;13.63;;;11.60;99.90;;;;;;5033459;28;20382;-74
2023/02/18 03:54:23;;;;;;;25.07;15.53;;;11.70;99.90;;;;;;5033741;28;20462;-73
2023/02/18 03:56:48;;;;;;;21.70;14.20;;;11.60;99.90;;;;;;5033499;28;20479;-75
2023/02/18 03:59:14;;;;;;;24.25;15.52;;;11.60;99.90;;;;;;5033229;28;20383;-74
2023/02/18 04:01:39;;;;;;;22.27;15.95;;;11.60;99.90;;;;;;5033552;28;20438;-74
2023/02/18 04:04:05;;;;;;;23.50;15.38;;;11.50;99.90;;;;;;5033836;28;20478;-74
2023/02/18 04:06:30;;;;;;;20.67;14.75;;;11.50;99.90;;;;;;5034066;28;20410;-75
2023/02/18 04:08:56;;;;;;;19.73;14.50;;;11.50;99.90;;;;;;5034033;28;20426;-74
2023/02/18 04:11:22;;;;;;;20.47;14.00;;;11.50;99.90;;;;;;5033097;28;20386;-75
2023/02/18 04:13:47;;;;;;;18.07;11.90;;;11.50;99.90;;;;;;5016360;28;20383;-75
2023/02/18 04:16:13;;;;;;;18.07;12.20;;;11.40;99.90;;;;;;5033374;28;20387;-76
2023/02/18 04:18:39;;;;;;;17.77;12.40;;;11.40;99.90;;;;;;5033985;28;20944;-73
2023/02/18 04:21:05;;;;;;;19.65;13.85;;;11.40;99.90;;;;;;5033301;28;20501;-76
2023/02/18 04:23:30;;;;;;;17.50;12.82;;;11.40;99.90;;;;;;5032491;28;20747;-75
2023/02/18 04:25:56;;;;;;;18.42;12.90;;;11.40;99.90;;;;;;5032781;28;20927;-75
2023/02/18 04:28:22;;;;;;;16.40;12.63;;;11.40;99.90;;;;;;5032569;28;20390;-73
2023/02/18 04:30:47;;;;;;;16.88;12.93;;;11.40;99.90;;;;;;5014702;28;20388;-74
2023/02/18 04:33:14;;;;;;;14.55;12.30;;;11.40;99.90;;;;;;5032991;28;20394;-75
2023/02/18 04:35:40;;;;;;;15.18;12.50;;;11.40;99.90;;;;;;5033057;28;20379;-74
2023/02/18 04:38:06;;;;;;;12.77;11.18;;;11.40;99.90;;;;;;5032362;28;20406;-74
2023/02/18 04:40:32;;;;;;;12.98;10.48;;;11.40;99.90;;;;;;5032924;28;20763;-74
2023/02/18 04:42:58;;;;;;;11.60;8.80;;;11.40;99.90;;;;;;5014923;28;20395;-74
2023/02/18 04:45:25;;;;;;;10.93;9.20;;;11.40;99.90;;;;;;5032935;28;20399;-75
2023/02/18 04:47:50;;;;;;;10.88;9.70;;;11.30;99.90;;;;;;5033138;28;20395;-74
2023/02/18 04:50:16;;;;;;;10.40;8.73;;;11.30;99.90;;;;;;5033111;28;20395;-75
2023/02/18 04:52:42;;;;;;;8.63;7.40;;;11.30;99.90;;;;;;5033390;28;20451;-75
2023/02/18 04:55:07;;;;;;;8.30;7.00;;;11.30;99.90;;;;;;5032424;28;20387;-76
2023/02/18 04:57:33;;;;;;;8.57;6.70;;;11.30;99.90;;;;;;5032403;28;20399;-76
2023/02/18 04:59:59;;;;;;;9.70;6.97;;;11.20;99.90;;;;;;5032422;28;20441;-76
2023/02/18 05:02:24;;;;;;;8.67;6.77;;;11.20;99.90;;;;;;5032686;28;20431;-74
2023/02/18 05:04:50;;;;;;;6.83;6.03;;;11.20;99.90;;;;;;5015598;28;20406;-76
2023/02/18 05:07:15;;;;;;;7.55;6.10;;;11.20;99.90;;;;;;5033940;28;20463;-76
2023/02/18 05:09:41;;;;;;;7.80;6.60;;;11.20;99.90;;;;;;5016616;28;20402;-75
2023/02/18 05:12:07;;;;;;;6.05;5.43;;;11.20;99.90;;;;;;5032439;28;20383;-75
2023/02/18 05:14:32;;;;;;;6.75;5.30;;;11.20;99.90;;;;;;5032148;28;20415;-75
2023/02/18 05:16:58;;;;;;;7.82;5.90;;;11.20;99.90;;;;;;5031962;28;20729;-76
2023/02/18 05:19:23;;;;;;;6.68;5.97;;;11.10;99.90;;;;;;5031789;28;20392;-75
2023/02/18 05:21:49;;;;;;;7.00;6.00;;;11.20;99.90;;;;;;5032203;28;20391;-74
2023/02/18 05:24:14;;;;;;;7.80;6.40;;;11.20;99.90;;;;;;5014145;28;20383;-75
2023/02/18 05:26:40;;;;;;;12.00;8.00;;;11.20;99.90;;;;;;5032975;28;20442;-75
2023/02/18 05:29:06;;;;;;;9.23;7.73;;;11.20;99.90;;;;;;5033851;28;20391;-76
2023/02/18 05:31:32;;;;;;;9.37;8.00;;;11.10;99.90;;;;;;5034168;28;20398;-75
2023/02/18 05:33:57;;;;;;;13.13;10.48;;;11.10;99.90;;;;;;5034262;28;20780;-75
2023/02/18 05:36:23;;;;;;;17.17;12.63;;;11.10;99.90;;;;;;5033583;28;20387;-76
2023/02/18 05:38:48;;;;;;;16.80;12.93;;;11.20;99.90;;;;;;5034513;28;20426;-75
2023/02/18 05:41:14;;;;;;;14.67;12.97;;;11.10;99.90;;;;;;5034289;28;20394;-75
2023/02/18 05:46:23;;;;;;;18.37;15.07;;;11.10;99.90;;;;;;5032238;28;20410;-76
2023/02/18 05:48:49;;;;;;;18.70;15.00;;;11.10;99.90;;;;;;5031687;28;20416;-76
2023/02/18 05:51:15;;;;;;;19.13;15.90;;;11.10;99.90;;;;;;5031279;28;20387;-76
2023/02/18 05:53:41;;;;;;;14.80;12.83;;;11.10;99.90;;;;;;5031764;28;20386;-75
2023/02/18 05:56:06;;;;;;;12.90;11.50;;;11.10;99.90;;;;;;5032115;28;20382;-76
2023/02/18 05:58:32;;;;;;;12.00;10.05;;;11.10;99.90;;;;;;5032029;28;20453;-75
2023/02/18 06:00:58;;;;;;;13.68;10.65;;;11.10;99.90;;;;;;5031345;28;20458;-75
2023/02/18 06:03:23;;;;;;;10.82;9.52;;;11.00;99.90;;;;;;5031934;28;20395;-75
2023/02/18 06:05:49;;;;;;;9.40;8.15;;;11.10;99.90;;;;;;5031665;28;20410;-76
2023/02/18 06:08:15;;;;;;;9.55;7.68;;;11.10;99.90;;;;;;5037686;28;20436;-74
2023/02/18 06:10:40;;;;;;;10.70;8.53;;;11.10;99.90;;;;;;5036944;28;20474;-76
2023/02/18 06:13:06;;;;;;;10.50;8.40;;;11.10;99.90;;;;;;5014686;28;20479;-75
2023/02/18 06:15:32;;;;;;;10.00;8.53;;;11.10;99.90;;;;;;5031746;28;20491;-75
2023/02/18 06:17:57;;;;;;;11.27;9.37;;;11.00;99.90;;;;;;5032075;28;20709;-75
2023/02/18 06:20:23;;;;;;;12.20;9.70;;;11.10;99.90;;;;;;5033905;28;20755;-76
2023/02/18 06:22:48;;;;;;;10.85;8.60;;;11.00;99.90;;;;;;5033860;28;20411;-75
2023/02/18 06:25:14;;;;;;;11.60;9.05;;;11.10;99.90;;;;;;5033719;28;20465;-74
2023/02/18 06:27:40;;;;;;;12.40;8.75;;;11.10;99.90;;;;;;5035719;28;20391;-74
2023/02/18 06:30:06;;;;;;;11.25;7.80;;;11.10;99.90;;;;;;5016926;28;20395;-76
2023/02/18 06:32:31;;;;;;;11.60;8.20;;;11.10;99.90;;;;;;5034959;28;20383;-75
2023/02/18 06:34:57;;;;;;;10.40;7.57;;;11.10;99.90;;;;;;5035992;28;20486;-75
2023/02/18 06:37:22;;;;;;;11.98;7.40;;;11.20;99.90;;;;;;5035904;28;20470;-75
2023/02/18 06:39:48;;;;;;;9.00;6.85;;;11.10;99.90;;;;;;5035150;28;20387;-75
2023/02/18 06:42:13;;;;;;;9.10;6.50;;;11.20;99.90;;;;;;5034764;28;20387;-77
2023/02/18 06:44:39;;;;;;;7.40;6.43;;;11.20;99.90;;;;;;5034793;28;20418;-75
2023/02/18 06:47:05;;;;;;;10.00;6.72;;;11.20;99.90;;;;;;5038786;28;20407;-77
2023/02/18 06:49:30;;;;;;;7.00;6.28;;;11.20;99.90;;;;;;5018473;28;20437;-74
2023/02/18 06:51:56;;;;;;;7.05;5.97;;;11.20;99.90;;;;;;5035407;28;20462;-74
2023/02/18 06:54:22;;;;;;;5.65;5.05;;;11.30;99.90;;;;;;5018139;28;20383;-75
2023/02/18 06:56:47;;;;;;;5.60;4.90;;;11.30;99.90;;;;;;5035660;28;20755;-74
2023/02/18 06:59:13;;;;;;;4.97;4.47;;;11.30;99.90;;;;;;5035426;28;20401;-74
2023/02/18 07:01:38;;;;;;;7.28;5.00;;;11.40;99.30;;;;;;5035433;28;20387;-75
2023/02/18 07:04:04;;;;;;;5.73;4.20;;;11.30;99.70;;;;;;5035705;28;20871;-76
2023/02/18 07:06:30;;;;;;;4.47;4.05;;;11.40;95.80;;;;;;5034848;28;20406;-76
2023/02/18 07:08:55;;;;;;;5.03;4.10;;;11.40;96.80;;;;;;5034835;28;20919;-75
2023/02/18 07:11:21;;;;;;;4.85;4.00;;;11.40;97.70;;;;;;5034643;28;20923;-75
2023/02/18 07:13:46;;;;;;;4.57;3.65;;;11.40;94.00;;;;;;5034772;28;20748;-76
2023/02/18 07:16:12;;;;;;;4.80;3.40;;;11.40;93.90;;;;;;5016880;28;20398;-75
2023/02/18 07:18:38;;;;;;;3.60;3.23;;;11.40;93.00;;;;;;5016806;28;20772;-75
2023/02/18 07:21:03;;;;;;;3.30;3.00;;;11.50;90.40;;;;;;5034388;28;20445;-75
2023/02/18 07:23:29;;;;;;;3.50;3.20;;;11.50;92.40;;;;;;5034853;28;20441;-75
2023/02/18 07:26:10;;;;;;;3.97;3.20;;;11.50;93.10;;;;;;5034310;28;20484;-77
2023/02/18 07:28:36;;;;;;;3.70;2.88;;;11.60;91.20;;;;;;5034488;28;20906;-74
2023/02/18 07:31:02;;;;;;;4.97;3.55;;;11.60;89.20;;;;;;5016578;28;20453;-76
2023/02/18 07:33:27;;;;;;;3.53;3.10;;;11.60;88.10;;;;;;5034483;28;20908;-74
2023/02/18 07:35:58;;;;;;;3.00;2.77;;;11.70;87.30;;;;;;5034928;28;20391;-76
2023/02/18 07:38:25;;;;;;;3.90;3.50;;;11.70;85.60;;;;;;5035130;28;20401;-74
2023/02/18 07:40:51;;;;;;;4.38;3.60;;;11.70;87.20;;;;;;5034804;28;20391;-75
2023/02/18 07:43:17;;;;;;;5.05;3.88;;;11.70;87.20;;;;;;5039328;28;20387;-74
2023/02/18 07:45:43;;;;;;;4.50;4.10;;;11.60;89.50;;;;;;5048888;28;20415;-75
2023/02/18 07:48:09;;;;;;;3.75;3.45;;;11.60;91.90;;;;;;5053496;28;20945;-75
2023/02/18 07:50:36;;;;;;;8.13;5.15;;;11.50;90.20;;;;;;5040753;28;20386;-73
2023/02/18 07:53:03;;;;;;;4.93;4.28;;;11.50;91.00;;;;;;5040138;28;20380;-76
2023/02/18 07:58:14;;;;;;;5.55;4.00;;;11.40;92.80;;;;;;5036708;28;20822;-76
2023/02/18 08:00:40;;;;;;;5.13;4.10;;;11.40;90.20;;;;;;5034337;28;20880;-75
2023/02/18 08:03:05;;;;;;;6.63;4.10;;;11.30;89.90;;;;;;5033364;28;20446;-76
2023/02/18 08:05:31;;;;;;;4.83;3.03;;;11.30;90.00;;;;;;5033592;28;20509;-76
2023/02/18 08:07:56;;;;;;;4.43;2.77;;;11.30;90.90;;;;;;5033544;28;20387;-75
2023/02/18 08:10:22;;;;;;;5.57;2.90;;;11.20;93.50;;;;;;5033867;28;20415;-75
2023/02/18 08:12:48;;;;;;;6.20;3.23;;;11.10;94.80;;;;;;5033590;28;20391;-76
2023/02/18 08:15:13;;;;;;;3.67;2.57;;;11.00;96.10;;;;;;5034194;28;20379;-75
2023/02/18 08:17:39;;;;;;;5.70;2.40;;;11.00;94.90;;;;;;5034199;28;20466;-74
2023/02/18 08:20:05;;;;;;;6.50;3.10;;;10.90;93.90;;;;;;5033573;28;20396;-75
2023/02/18 08:22:31;;;;;;;5.75;2.33;;;11.00;94.40;;;;;;5033661;28;20927;-76
2023/02/18 08:24:56;;;;;;;5.57;2.70;;;11.00;92.40;;;;;;5033722;28;20421;-75
2023/02/18 08:27:23;;;;;;;7.63;2.60;;;11.00;90.90;;;;;;5033808;28;20403;-76
2023/02/18 08:29:48;;;;;;;3.38;2.50;;;11.10;90.30;;;;;;5032642;28;20411;-75
2023/02/18 08:32:14;;;;;;;5.35;3.28;;;11.10;88.10;;;;;;5015052;28;20820;-75
2023/02/18 08:34:39;;;;;;;4.27;2.40;;;11.20;88.20;;;;;;5034079;28;20815;-75
2023/02/18 08:37:05;;;;;;;6.30;3.30;;;11.20;86.30;;;;;;5016017;28;20858;-74
2023/02/18 08:39:35;;;;;;;7.50;3.40;;;11.30;83.00;;;;;;5039893;28;20379;-77
2023/02/18 08:42:00;;;;;;;7.87;2.77;;;11.40;81.50;;;;;;5053664;28;20489;-76
2023/02/18 08:44:27;;;;;;;3.67;2.23;;;11.50;78.50;;;;;;5042279;28;20491;-75
2023/02/18 08:46:52;;;;;;;7.43;2.92;;;11.60;75.10;;;;;;5032562;28;20450;-75
2023/02/18 08:49:19;;;;;;;8.70;3.10;;;11.60;72.60;;;;;;5015190;28;20430;-75
2023/02/18 08:51:46;;;;;;;11.17;3.30;;;11.70;74.10;;;;;;5032178;28;20424;-75
2023/02/18 08:54:12;;;;;;;8.00;3.30;;;11.60;76.30;;;;;;5032313;28;20383;-74
2023/02/18 08:56:38;;;;;;;8.82;2.78;;;11.60;77.80;;;;;;5014435;28;20498;-75
2023/02/18 08:59:04;;;;;;;9.00;3.50;;;11.50;76.30;;;;;;5032162;28;20403;-75
2023/02/18 09:01:30;;;;;;;6.95;3.10;;;11.40;77.30;;;;;;5014056;28;20907;-75
2023/02/18 09:03:56;;;;;;;6.47;3.20;;;11.40;76.20;;;;;;5032197;28;20896;-74
2023/02/18 09:06:21;;;;;;;7.50;3.60;;;11.40;74.70;;;;;;5031960;28;20505;-76
2023/02/18 09:08:47;;;;;;;7.22;3.35;;;11.40;77.60;;;;;;5031335;28;20903;-76
2023/02/18 09:11:12;;;;;;;10.27;2.85;;;11.30;76.90;;;;;;5031527;28;20438;-74
2023/02/18 09:13:39;;;;;;;8.38;2.70;;;11.40;74.00;;;;;;5014388;28;20441;-75
2023/02/18 09:16:07;;;;;;;13.65;3.30;;;11.40;72.40;;;;;;5031652;28;20387;-75
2023/02/18 09:18:36;;;;;;;8.48;3.10;;;11.50;69.60;;;;;;5031692;28;20397;-74
2023/02/18 09:21:05;;;;;;;12.77;3.78;;;11.40;70.00;;;;;;5031597;28;20407;-74
2023/02/18 09:23:32;;;;;;;13.75;3.60;;;11.40;70.70;;;;;;5031932;28;20452;-74
2023/02/18 09:25:57;;;;;;;15.02;4.40;;;11.50;69.00;;;;;;5031860;28;20449;-75
2023/02/18 09:28:23;;;;;;;10.20;3.65;;;11.40;71.10;;;;;;5031957;28;20387;-74
2023/02/18 09:30:49;;;;;;;10.50;3.55;;;11.50;67.30;;;;;;5031546;28;20756;-74
2023/02/18 09:33:15;;;;;;;9.57;3.50;;;11.50;66.30;;;;;;5032397;28;20466;-75
2023/02/18 09:35:42;;;;;;;19.70;3.87;;;11.50;66.30;;;;;;5032223;28;20395;-75
2023/02/18 09:38:10;;;;;;;14.25;3.70;;;11.50;65.60;;;;;;5031822;28;20452;-75
2023/02/18 09:40:40;;;;;;;11.82;3.80;;;11.60;64.50;;;;;;5031303;28;20756;-74
2023/02/18 09:43:08;;;;;;;14.77;3.92;;;11.60;64.80;;;;;;5030994;28;20393;-74
2023/02/18 09:45:34;;;;;;;13.98;3.95;;;11.50;67.20;;;;;;5013575;28;20617;-75
2023/02/18 09:48:02;;;;;;;15.30;4.38;;;11.50;66.00;;;;;;5031417;28;20394;-74
2023/02/18 09:50:32;;;;;;;13.32;3.85;;;11.60;64.80;;;;;;5031480;28;20399;-75
2023/02/18 09:52:59;;;;;;;11.93;3.40;;;11.60;65.70;;;;;;5030776;28;20380;-74
2023/02/18 09:55:31;;;;;;;13.73;3.45;;;11.60;64.00;;;;;;5032078;28;20419;-75
2023/02/18 09:58:04;;;;;;;14.82;4.80;;;11.70;62.90;;;;;;5014293;28;20399;-75
2023/02/18 10:00:38;;;;;;;15.37;4.30;;;11.70;63.40;;;;;;5031241;28;20387;-75
2023/02/18 10:03:16;;;;;;;10.20;3.75;;;11.70;63.00;;;;;;5012710;28;20422;-77
2023/02/18 10:05:53;;;;;;;14.20;3.60;;;11.70;61.00;;;;;;5030722;28;20399;-74
2023/02/18 10:08:32;;;;;;;16.77;4.45;;;11.70;62.50;;;;;;5031127;28;20417;-74
2023/02/18 10:10:57;;;;;;;15.48;4.13;;;11.70;62.80;;;;;;5030347;28;20457;-75
2023/02/18 10:13:27;;;;;;;13.93;3.87;;;11.70;62.20;;;;;;5030712;28;20479;-74
2023/02/18 10:15:53;;;;;;;12.35;3.92;;;11.70;62.70;;;;;;5030610;28;20399;-76
2023/02/18 10:18:26;;;;;;;15.87;4.00;;;11.80;62.70;;;;;;5012696;28;20390;-76
2023/02/18 10:21:03;;;;;;;17.17;3.75;;;11.70;63.70;;;;;;5029288;28;20399;-76
2023/02/18 10:23:32;;;;;;;14.93;3.50;;;11.70;63.00;;;;;;5032484;28;20391;-75
2023/02/18 10:26:00;;;;;;;13.60;3.60;;;11.70;60.70;;;;;;5032813;28;20973;-76
2023/02/18 10:28:27;;;;;;;11.63;3.30;;;11.70;60.70;;;;;;5032986;28;20957;-76
2023/02/18 10:31:20;;;;;;;11.98;3.60;;;11.80;60.10;;;;;;5031675;28;20409;-76
2023/02/18 10:33:52;;;;;;;13.52;3.40;;;11.80;61.30;;;;;;5025195;28;20399;-75
2023/02/18 10:36:48;;;;;;;15.10;3.70;;;11.80;61.20;;;;;;5030900;28;20385;-75
2023/02/18 10:39:31;;;;;;;17.77;3.72;;;11.80;64.80;;;;;;5030463;28;20433;-75
2023/02/18 10:42:03;;;;;;;15.07;3.90;;;11.70;68.10;;;;;;5030852;28;20415;-75
2023/02/18 10:44:52;;;;;;;11.88;3.63;;;11.50;72.60;;;;;;5014377;28;20423;-74
2023/02/18 10:47:39;;;;;;;15.60;3.90;;;11.40;76.60;;;;;;5010550;28;20446;-74
2023/02/18 10:50:08;;;;;;;14.48;3.70;;;11.20;79.90;;;;;;5012708;28;20409;-76
2023/02/18 10:52:42;;;;;;;17.65;4.40;;;11.20;80.10;;;;;;5030372;28;20387;-76
2023/02/18 10:55:17;;;;;;;18.25;4.10;;;11.30;81.30;;;;;;5030454;28;20470;-75
2023/02/18 10:57:51;;;;;;;11.98;3.55;;;11.20;78.90;;;;;;5030993;28;20799;-75
2023/02/18 11:00:25;;;;;;;16.95;3.58;;;11.30;80.30;;;;;;5030827;28;20478;-75
2023/02/18 11:03:14;;;;;;;14.10;4.10;;;11.40;81.10;;;;;;5030628;28;20387;-75
2023/02/18 11:05:40;;;;;;;15.02;3.50;;;11.30;82.10;;;;;;5030560;28;20407;-76
2023/02/18 11:08:09;;;;;;;12.18;4.03;;;11.30;83.30;;;;;;5030375;28;20499;-75
2023/02/18 11:10:39;;;;;;;14.30;4.05;;;11.20;85.90;;;;;;5033609;28;20419;-75
2023/02/18 11:13:06;;;;;;;18.30;4.50;;;11.20;89.90;;;;;;5045898;28;20442;-75
2023/02/18 11:15:33;;;;;;;22.08;4.50;;;11.10;94.00;;;;;;5044973;28;20429;-75
2023/02/18 11:18:30;;;;;;;14.38;4.43;;;11.20;94.50;;;;;;5031435;28;20406;-74
2023/02/18 11:21:02;;;;;;;16.60;4.07;;;11.10;94.90;;;;;;5030661;28;20407;-75
2023/02/18 11:23:28;;;;;;;8.65;3.92;;;11.10;95.30;;;;;;5031305;28;20399;-74
2023/02/18 11:26:03;;;;;;;10.60;4.00;;;11.10;96.20;;;;;;5030305;28;20402;-74
2023/02/18 11:28:31;;;;;;;8.43;3.80;;;11.00;99.90;;;;;;5030056;28;20391;-75
2023/02/18 11:31:00;;;;;;;17.45;3.90;;;11.00;98.60;;;;;;5030782;28;20375;-75
2023/02/18 11:33:39;;;;;;;14.57;4.60;;;11.00;99.60;;;;;;5034284;28;20769;-75
2023/02/18 11:36:33;;;;;;;11.95;4.43;;;11.10;99.90;;;;;;5034842;28;20387;-76
2023/02/18 11:39:16;;;;;;;12.67;4.90;;;11.10;99.90;;;;;;5029473;28;20391;-76
2023/02/18 11:41:46;;;;;;;12.45;4.10;;;11.10;97.50;;;;;;5033547;28;20934;-75
2023/02/18 11:44:22;;;;;;;9.43;4.18;;;11.10;99.20;;;;;;5033844;28;20395;-73
2023/02/18 11:47:01;;;;;;;7.18;4.00;;;11.10;99.00;;;;;;5033781;28;20455;-74
2023/02/18 11:49:28;;;;;;;12.48;4.30;;;11.10;99.20;;;;;;5033661;28;20378;-73
2023/02/18 11:52:01;;;;;;;15.95;6.40;;;11.00;99.90;;;;;;5033553;28;20393;-73
2023/02/18 11:54:30;;;;;;;15.63;6.60;;;10.90;99.90;;;;;;5033571;28;20376;-76
2023/02/18 11:57:08;;;;;;;13.43;4.57;;;11.00;99.90;;;;;;5015776;28;20899;-74
2023/02/18 11:59:37;;;;;;;12.90;5.38;;;11.10;99.90;;;;;;5033376;28;20394;-74
2023/02/18 12:02:09;;;;;;;16.17;4.32;;;11.00;99.90;;;;;;5016150;28;20986;-74
2023/02/18 12:05:13;;;;;;;9.27;4.23;;;11.00;99.90;;;;;;5033916;28;20792;-75
2023/02/18 12:07:43;;;;;;;10.70;4.45;;;11.10;99.90;;;;;;4993350;28;20461;-74
2023/02/18 12:10:33;;;;;;;7.93;4.00;;;11.10;99.90;;;;;;5032938;28;20391;-75
2023/02/18 12:13:19;;;;;;;11.13;6.63;;;11.20;99.90;;;;;;5048057;28;20391;-75
2023/02/18 12:15:59;;;;;;;16.52;8.90;;;11.20;99.90;;;;;;5044042;28;20714;-76
2023/02/18 12:18:58;;;;;;;9.98;4.60;;;11.30;99.90;;;;;;5036469;28;20393;-73
2023/02/18 12:21:43;;;;;;;8.48;4.00;;;11.30;99.90;;;;;;5033082;28;20486;-74
2023/02/18 12:24:11;;;;;;;8.18;3.72;;;11.30;99.90;;;;;;5032619;28;20379;-75
2023/02/18 12:26:49;;;;;;;7.43;3.60;;;11.30;99.90;;;;;;5032584;28;20502;-73
2023/02/18 12:29:49;;;;;;;9.02;5.10;;;11.20;99.90;;;;;;5032231;28;20463;-74
2023/02/18 12:32:46;;;;;;;6.03;3.90;;;11.20;99.90;;;;;;5032273;28;20713;-75
2023/02/18 12:35:36;;;;;;;8.25;3.58;;;11.20;99.90;;;;;;5032540;28;20387;-71
2023/02/18 12:38:53;;;;;;;10.67;4.50;;;11.30;99.90;;;;;;5032310;28;20386;-73
2023/02/18 12:41:43;;;;;;;6.13;4.20;;;11.40;99.90;;;;;;4984786;28;20436;-73
2023/02/18 12:44:29;;;;;;;15.30;7.05;;;11.30;99.90;;;;;;5031441;28;20788;-74
2023/02/18 12:47:13;;;;;;;8.02;4.22;;;11.20;99.90;;;;;;5032537;28;20421;-74
2023/02/18 12:50:04;;;;;;;11.75;3.60;;;11.20;99.90;;;;;;5032814;28;20747;-73
2023/02/18 12:53:01;;;;;;;10.30;6.15;;;11.20;99.90;;;;;;5033260;28;20382;-75
2023/02/18 12:55:53;;;;;;;4.10;3.63;;;11.30;99.90;;;;;;5032680;28;20384;-74
2023/02/18 12:58:22;;;;;;;6.47;4.50;;;11.30;99.90;;;;;;5032158;28;20712;-74